Time;durP1;ratioP1;P1;durP2;ratioP2;P2;SDS_P1;SDS_P2;PMS_P1;PMS_P2;Temp;Humidity;BMP_temperature;BMP_pressure;BME280_temperature;BME280_humidity;BME280_pressure;Samples;Min_cycle;Max_cycle;Signal;HPM_P1;HPM_P2
2023/06/01 00:01:04;;;;;;;;;;;;;;;17.21;46.34;100868.03;5075409;28;1146;-58
2023/06/01 00:03:30;;;;;;;;;;;;;;;17.79;47.00;100876.75;5075542;28;1165;-59
2023/06/01 00:05:58;;;;;;;;;;;;;;;17.53;47.57;100864.13;5075899;28;1061;-59
2023/06/01 00:08:23;;;;;;;;;;;;;;;17.34;47.08;100878.44;5077461;28;996;-61
2023/06/01 00:10:49;;;;;;;;;;;;;;;18.36;47.70;100864.72;5070327;28;1897;-59
2023/06/01 00:13:15;;;;;;;;;;;;;;;17.63;47.93;100861.38;5075991;28;1047;-58
2023/06/01 00:15:40;;;;;;;;;;;;;;;17.45;47.08;100858.09;5075703;28;1134;-60
2023/06/01 00:18:08;;;;;;;;;;;;;;;17.28;46.67;100865.81;5078310;28;1039;-57
2023/06/01 00:20:34;;;;;;;;;;;;;;;17.67;47.34;100867.97;5069203;28;1062;-58
2023/06/01 00:22:59;;;;;;;;;;;;;;;17.90;48.28;100860.19;5079778;28;1140;-62
2023/06/01 00:25:25;;;;;;;;;;;;;;;17.52;47.82;100851.50;5078890;28;1150;-62
2023/06/01 00:27:50;;;;;;;;;;;;;;;17.35;47.16;100854.53;5079292;28;1050;-63
2023/06/01 00:30:18;;;;;;;;;;;;;;;17.22;46.52;100853.16;5061418;28;1902;-61
2023/06/01 00:32:43;;;;;;;;;;;;;;;17.12;45.93;100853.19;5064006;28;944;-61
2023/06/01 00:35:09;;;;;;;;;;;;;;;17.98;47.01;100854.13;5055727;28;1387;-59
2023/06/01 00:37:34;;;;;;;;;;;;;;;17.69;47.95;100853.94;5079416;28;1047;-61
2023/06/01 00:40:00;;;;;;;;;;;;;;;17.41;47.25;100851.50;5079120;28;1090;-60
2023/06/01 00:42:26;;;;;;;;;;;;;;;17.19;46.78;100853.72;5061418;28;1193;-65
2023/06/01 00:44:53;;;;;;;;;;;;;;;17.73;47.39;100855.03;5084626;28;924;-61
2023/06/01 00:47:19;;;;;;;;;;;;;;;17.53;47.63;100855.88;5061185;28;1216;-62
2023/06/01 00:49:44;;;;;;;;;;;;;;;17.25;47.19;100853.47;5078922;28;1046;-63
2023/06/01 00:52:10;;;;;;;;;;;;;;;17.16;46.48;100859.78;5078782;28;1964;-58
2023/06/01 00:54:36;;;;;;;;;;;;;;;17.05;46.06;100858.94;5044626;28;1250;-61
2023/06/01 00:57:01;;;;;;;;;;;;;;;17.97;47.05;100865.44;5091361;28;1057;-59
2023/06/01 00:59:27;;;;;;;;;;;;;;;17.79;48.15;100851.97;5079179;28;1183;-61
2023/06/01 01:01:52;;;;;;;;;;;;;;;17.44;47.40;100850.94;5078863;28;1042;-65
2023/06/01 01:04:25;;;;;;;;;;;;;;;17.22;47.12;100847.69;5078619;28;1058;-61
2023/06/01 01:07:00;;;;;;;;;;;;;;;17.27;46.58;100844.94;5080232;28;1050;-61
2023/06/01 01:09:35;;;;;;;;;;;;;;;17.94;47.97;100844.81;5082611;28;1070;-61
2023/06/01 01:12:04;;;;;;;;;;;;;;;17.44;47.88;100845.44;5060567;28;1913;-61
2023/06/01 01:14:37;;;;;;;;;;;;;;;17.19;46.92;100848.22;5060519;28;1113;-61
2023/06/01 01:17:07;;;;;;;;;;;;;;;17.22;46.39;100853.16;5060848;28;1205;-60
2023/06/01 01:19:40;;;;;;;;;;;;;;;17.14;45.68;100853.72;5040985;28;1254;-61
2023/06/01 01:22:15;;;;;;;;;;;;;;;18.02;47.17;100857.97;5054445;28;1317;-61
2023/06/01 01:24:41;;;;;;;;;;;;;;;17.66;47.87;100852.56;5078656;28;1181;-61
2023/06/01 01:27:27;;;;;;;;;;;;;;;17.35;47.33;100851.78;5060285;28;1015;-61
2023/06/01 01:29:53;;;;;;;;;;;;;;;18.18;48.11;100852.41;5059920;28;1949;-66
2023/06/01 01:32:19;;;;;;;;;;;;;;;17.57;48.01;100848.72;5067488;28;1138;-65
2023/06/01 01:34:44;;;;;;;;;;;;;;;17.44;47.10;100850.94;5059907;28;1154;-65
2023/06/01 01:37:10;;;;;;;;;;;;;;;17.28;46.56;100852.09;5060280;28;1055;-65
2023/06/01 01:39:35;;;;;;;;;;;;;;;17.11;46.17;100846.88;5059847;28;1051;-65
2023/06/01 01:42:01;;;;;;;;;;;;;;;17.13;45.50;100850.16;5060133;28;1141;-65
2023/06/01 01:44:29;;;;;;;;;;;;;;;18.13;47.23;100855.97;5061210;28;1171;-65
2023/06/01 01:46:58;;;;;;;;;;;;;;;17.55;47.89;100857.25;5060101;28;1134;-63
2023/06/01 01:49:53;;;;;;;;;;;;;;;17.35;46.84;100862.78;5060057;28;1208;-65
2023/06/01 01:52:20;;;;;;;;;;;;;;;17.11;46.63;100857.88;5042998;28;1692;-66
2023/06/01 01:54:45;;;;;;;;;;;;;;;16.99;46.13;100860.06;5059743;28;1395;-61
2023/06/01 01:57:12;;;;;;;;;;;;;;;18.27;47.34;100856.19;5067892;28;1199;-60
2023/06/01 01:59:37;;;;;;;;;;;;;;;17.47;48.01;100859.75;5060024;28;1174;-61
2023/06/01 02:02:03;;;;;;;;;;;;;;;17.27;47.42;100861.41;5039737;28;1625;-61
2023/06/01 02:04:30;;;;;;;;;;;;;;;18.13;47.84;100862.34;5055386;28;1241;-62
2023/06/01 02:06:57;;;;;;;;;;;;;;;17.71;48.09;100860.81;5059827;28;1191;-62
2023/06/01 02:09:23;;;;;;;;;;;;;;;17.43;47.59;100865.81;5062088;28;1169;-62
2023/06/01 02:11:49;;;;;;;;;;;;;;;17.30;46.73;100871.84;5059599;28;1980;-62
2023/06/01 02:14:15;;;;;;;;;;;;;;;17.26;46.19;100857.00;5059360;28;1191;-62
2023/06/01 02:16:40;;;;;;;;;;;;;;;17.03;45.94;100870.22;5077506;28;1141;-62
2023/06/01 02:19:10;;;;;;;;;;;;;;;17.02;45.67;100868.56;5077041;28;1050;-62
2023/06/01 02:21:36;;;;;;;;;;;;;;;17.84;47.04;100867.63;5069305;28;1609;-63
2023/06/01 02:24:05;;;;;;;;;;;;;;;17.42;47.11;100866.91;5059363;28;1206;-63
2023/06/01 02:26:30;;;;;;;;;;;;;;;18.51;47.70;100866.53;5077388;28;1070;-62
2023/06/01 02:28:56;;;;;;;;;;;;;;;18.01;48.86;100872.84;5077080;28;1099;-62
2023/06/01 02:31:22;;;;;;;;;;;;;;;17.57;48.34;100873.47;5059546;28;1992;-62
2023/06/01 02:33:48;;;;;;;;;;;;;;;17.43;47.36;100862.22;5080469;28;1062;-62
2023/06/01 02:36:16;;;;;;;;;;;;;;;17.13;46.98;100861.16;5076834;28;1066;-62
2023/06/01 02:38:43;;;;;;;;;;;;;;;17.11;46.41;100866.09;5059279;28;1066;-62
2023/06/01 02:41:09;;;;;;;;;;;;;;;17.93;47.45;100870.66;5058753;28;1099;-62
2023/06/01 02:43:35;;;;;;;;;;;;;;;17.42;47.72;100863.34;5077781;28;1062;-61
2023/06/01 02:46:00;;;;;;;;;;;;;;;17.17;47.01;100866.94;5068736;28;1343;-61
2023/06/01 02:48:27;;;;;;;;;;;;;;;17.35;47.17;100866.38;5058811;28;1292;-62
2023/06/01 02:50:55;;;;;;;;;;;;;;;18.00;47.74;100873.94;5058652;28;1914;-63
2023/06/01 02:53:21;;;;;;;;;;;;;;;17.45;47.59;100873.78;5058806;28;1166;-62
2023/06/01 02:55:46;;;;;;;;;;;;;;;17.28;47.01;100876.81;5061105;28;1246;-63
2023/06/01 02:58:16;;;;;;;;;;;;;;;17.18;46.30;100874.06;5079199;28;1019;-63
2023/06/01 03:00:53;;;;;;;;;;;;;;;17.11;45.63;100877.09;5058620;28;1454;-62
2023/06/01 03:03:18;;;;;;;;;;;;;;;18.10;47.65;100873.06;5058729;28;1157;-62
2023/06/01 03:05:44;;;;;;;;;;;;;;;17.51;47.66;100878.16;5076846;28;1027;-62
2023/06/01 03:08:36;;;;;;;;;;;;;;;18.23;48.21;100874.38;5061338;28;1056;-60
2023/06/01 03:11:03;;;;;;;;;;;;;;;18.19;48.68;100878.81;5062153;28;1913;-62
2023/06/01 03:13:33;;;;;;;;;;;;;;;17.61;48.49;100874.56;5058412;28;1518;-62
2023/06/01 03:15:59;;;;;;;;;;;;;;;17.44;47.55;100881.19;5076496;28;1042;-63
2023/06/01 03:18:25;;;;;;;;;;;;;;;17.30;46.70;100874.59;5076266;28;1114;-62
2023/06/01 03:20:50;;;;;;;;;;;;;;;18.29;48.13;100870.53;5079376;28;1054;-63
2023/06/01 03:23:16;;;;;;;;;;;;;;;17.67;48.09;100881.72;5048087;28;1407;-63
2023/06/01 03:25:42;;;;;;;;;;;;;;;17.47;47.33;100879.81;5058355;28;1186;-63
2023/06/01 03:28:07;;;;;;;;;;;;;;;17.40;46.62;100887.50;5076337;28;1126;-60
2023/06/01 03:30:33;;;;;;;;;;;;;;;17.24;46.09;100893.03;5058580;28;1917;-61
2023/06/01 03:32:58;;;;;;;;;;;;;;;18.02;47.47;100892.91;5066335;28;894;-61
2023/06/01 03:35:24;;;;;;;;;;;;;;;17.45;47.41;100890.28;5054574;28;1123;-61
2023/06/01 03:37:50;;;;;;;;;;;;;;;17.30;46.95;100882.84;5057683;28;1324;-60
2023/06/01 03:40:18;;;;;;;;;;;;;;;17.35;46.84;100887.50;5057882;28;2137;-63
2023/06/01 03:42:45;;;;;;;;;;;;;;;17.79;47.53;100885.00;5058429;28;1333;-62
2023/06/01 03:45:11;;;;;;;;;;;;;;;17.41;47.57;100889.16;5064742;28;1158;-63
2023/06/01 03:47:36;;;;;;;;;;;;;;;17.38;47.00;100884.22;5076382;28;1231;-63
2023/06/01 03:50:03;;;;;;;;;;;;;;;17.23;46.30;100894.09;5058207;28;1988;-62
2023/06/01 03:52:29;;;;;;;;;;;;;;;17.10;46.15;100895.50;5077641;28;1162;-64
2023/06/01 03:54:55;;;;;;;;;;;;;;;18.03;47.44;100894.56;5075821;28;1105;-62
2023/06/01 03:57:47;;;;;;;;;;;;;;;17.40;47.72;100896.59;5047423;28;1405;-62
2023/06/01 04:00:18;;;;;;;;;;;;;;;17.33;46.73;100898.78;5074772;28;1332;-63
2023/06/01 04:03:03;;;;;;;;;;;;;;;17.26;46.87;100895.50;5082585;28;1087;-62
2023/06/01 04:05:29;;;;;;;;;;;;;;;17.85;47.75;100899.56;5071399;28;1197;-60
2023/06/01 04:07:56;;;;;;;;;;;;;;;17.61;47.83;100902.06;5064164;28;1054;-60
2023/06/01 04:10:21;;;;;;;;;;;;;;;17.37;47.29;100899.88;5059979;28;1902;-61
2023/06/01 04:12:48;;;;;;;;;;;;;;;18.16;48.38;100901.38;5077691;28;2270;-61
2023/06/01 04:15:14;;;;;;;;;;;;;;;17.53;48.32;100900.72;5064598;28;1412;-61
2023/06/01 04:17:40;;;;;;;;;;;;;;;17.47;47.33;100903.72;5081341;28;1213;-61
2023/06/01 04:20:07;;;;;;;;;;;;;;;17.60;47.36;100916.94;5064721;28;1476;-61
2023/06/01 04:22:33;;;;;;;;;;;;;;;18.43;48.15;100907.31;5067946;28;1126;-60
2023/06/01 04:24:58;;;;;;;;;;;;;;;17.81;47.99;100914.13;5085312;28;1091;-59
2023/06/01 04:27:24;;;;;;;;;;;;;;;17.54;47.43;100909.78;5052624;28;1283;-58
2023/06/01 04:29:50;;;;;;;;;;;;;;;18.54;48.23;100910.03;5053633;28;1076;-55
2023/06/01 04:32:21;;;;;;;;;;;;;;;17.78;48.37;100913.59;5095867;28;1918;-57
2023/06/01 04:34:49;;;;;;;;;;;;;;;17.75;47.23;100914.16;5060254;28;1064;-57
2023/06/01 04:37:15;;;;;;;;;;;;;;;18.29;48.01;100907.13;5072685;28;1153;-59
2023/06/01 04:39:42;;;;;;;;;;;;;;;17.87;48.15;100907.53;5051218;28;1131;-60
2023/06/01 04:42:08;;;;;;;;;;;;;;;17.62;47.27;100907.28;5078097;28;1124;-61
2023/06/01 04:44:34;;;;;;;;;;;;;;;17.52;46.73;100906.50;5065948;28;1221;-60
2023/06/01 04:47:03;;;;;;;;;;;;;;;18.19;47.44;100909.06;5079424;28;1382;-61
2023/06/01 04:49:30;;;;;;;;;;;;;;;18.01;48.23;100908.59;5081026;28;1063;-58
2023/06/01 04:51:55;;;;;;;;;;;;;;;17.67;47.25;100903.72;5060245;28;1913;-62
2023/06/01 04:54:21;;;;;;;;;;;;;;;17.55;46.85;100905.94;5053635;28;1139;-60
2023/06/01 04:56:47;;;;;;;;;;;;;;;17.45;46.04;100904.00;5066478;28;1147;-59
2023/06/01 04:59:12;;;;;;;;;;;;;;;18.60;45.29;100908.91;5078480;28;1071;-60
2023/06/01 05:01:39;;;;;;;;;;;;;;;18.01;47.32;100908.59;5073823;28;1167;-60
2023/06/01 05:04:04;;;;;;;;;;;;;;;17.73;48.24;100916.34;5069753;28;1892;-60
2023/06/01 05:06:31;;;;;;;;;;;;;;;17.52;48.90;100909.25;5077578;28;1105;-60
2023/06/01 05:08:58;;;;;;;;;;;;;;;17.43;49.61;100919.94;5046045;28;1222;-59
2023/06/01 05:11:23;;;;;;;;;;;;;;;17.31;49.76;100917.47;5050440;28;1985;-61
2023/06/01 05:13:51;;;;;;;;;;;;;;;17.20;50.21;100924.09;5040338;28;1231;-59
2023/06/01 05:16:16;;;;;;;;;;;;;;;17.12;50.77;100922.69;5040445;28;1250;-60
2023/06/01 05:18:42;;;;;;;;;;;;;;;17.08;50.96;100924.34;5072576;28;1139;-58
2023/06/01 05:21:08;;;;;;;;;;;;;;;16.98;51.53;100921.59;5056677;28;1237;-60
2023/06/01 05:23:34;;;;;;;;;;;;;;;16.90;51.63;100922.94;5049530;28;1218;-58
2023/06/01 05:26:02;;;;;;;;;;;;;;;16.85;51.80;100920.16;5085539;28;1089;-62
2023/06/01 05:28:31;;;;;;;;;;;;;;;16.78;52.28;100925.91;5062401;28;1253;-62
2023/06/01 05:30:57;;;;;;;;;;;;;;;16.69;52.28;100922.88;5066520;28;1984;-61
2023/06/01 05:33:23;;;;;;;;;;;;;;;16.68;52.46;100921.22;5049867;28;1273;-60
2023/06/01 05:35:48;;;;;;;;;;;;;;;16.62;52.79;100922.31;5073142;28;1246;-61
2023/06/01 05:38:17;;;;;;;;;;;;;;;16.56;53.01;100923.38;5072315;28;1362;-61
2023/06/01 05:40:43;;;;;;;;;;;;;;;16.51;53.28;100915.13;5060179;28;1322;-60
2023/06/01 05:43:08;;;;;;;;;;;;;;;16.48;53.14;100923.91;5059478;28;1989;-61
2023/06/01 05:45:34;;;;;;;;;;;;;;;16.46;53.48;100924.16;5065576;28;1994;-61
2023/06/01 05:47:59;;;;;;;;;;;;;;;16.39;53.41;100913.44;5046715;28;1242;-60
2023/06/01 05:50:25;;;;;;;;;;;;;;;16.33;53.67;100922.75;5056438;28;1964;-60
2023/06/01 05:52:51;;;;;;;;;;;;;;;16.27;53.69;100925.75;5036492;28;1142;-60
2023/06/01 05:55:17;;;;;;;;;;;;;;;16.28;53.68;100917.22;5039685;28;1622;-60
2023/06/01 05:57:42;;;;;;;;;;;;;;;16.21;53.90;100927.63;5042677;28;1091;-60
2023/06/01 06:00:10;;;;;;;;;;;;;;;16.16;54.30;100922.97;5029708;28;1218;-57
2023/06/01 06:02:44;;;;;;;;;;;;;;;16.16;53.95;100919.38;5041549;28;1091;-60
2023/06/01 06:05:10;;;;;;;;;;;;;;;16.12;54.03;100924.59;5057333;28;1040;-59
2023/06/01 06:07:36;;;;;;;;;;;;;;;16.07;54.47;100922.66;5028787;28;1226;-61
2023/06/01 06:10:02;;;;;;;;;;;;;;;16.02;54.22;100925.34;5053373;28;1984;-58
2023/06/01 06:12:28;;;;;;;;;;;;;;;15.99;54.54;100928.63;5045661;28;1038;-59
2023/06/01 06:14:53;;;;;;;;;;;;;;;16.02;54.48;100916.28;5052457;28;1134;-58
2023/06/01 06:17:19;;;;;;;;;;;;;;;15.91;54.78;100924.47;5041761;28;1177;-59
2023/06/01 06:19:44;;;;;;;;;;;;;;;17.02;52.81;100925.44;5017342;28;1116;-58
2023/06/01 06:22:10;;;;;;;;;;;;;;;16.83;53.52;100927.84;5020359;28;1211;-59
2023/06/01 06:24:35;;;;;;;;;;;;;;;16.45;54.79;100929.94;5023339;28;1277;-59
2023/06/01 06:27:01;;;;;;;;;;;;;;;16.32;55.01;100925.78;5024619;28;1245;-58
2023/06/01 06:29:27;;;;;;;;;;;;;;;16.20;55.06;100925.97;5037910;28;1095;-57
2023/06/01 06:31:53;;;;;;;;;;;;;;;16.13;55.24;100934.47;5049819;28;1898;-52
2023/06/01 06:34:18;;;;;;;;;;;;;;;16.11;55.24;100927.59;5033765;28;1185;-53
2023/06/01 06:36:44;;;;;;;;;;;;;;;16.05;55.29;100938.53;5029585;28;1139;-54
2023/06/01 06:39:09;;;;;;;;;;;;;;;16.00;55.33;100933.00;5043272;28;1154;-55
2023/06/01 06:41:35;;;;;;;;;;;;;;;16.80;54.03;100937.44;5056541;28;1104;-57
2023/06/01 06:44:01;;;;;;;;;;;;;;;17.09;53.47;100932.28;5041108;28;1150;-54
2023/06/01 06:46:26;;;;;;;;;;;;;;;16.62;54.88;100933.28;5040633;28;1215;-57
2023/06/01 06:48:52;;;;;;;;;;;;;;;16.41;55.37;100941.44;5057067;28;1191;-57
2023/06/01 06:51:17;;;;;;;;;;;;;;;16.32;55.59;100944.97;5056551;28;1971;-58
2023/06/01 06:53:43;;;;;;;;;;;;;;;16.28;55.50;100938.38;5069485;28;1107;-57
2023/06/01 06:56:08;;;;;;;;;;;;;;;16.20;55.39;100942.44;5061129;28;1311;-57
2023/06/01 06:58:34;;;;;;;;;;;;;;;16.18;55.44;100936.41;5069165;28;1083;-57
2023/06/01 07:01:04;;;;;;;;;;;;;;;16.11;55.47;100935.81;5086641;28;1115;-49
2023/06/01 07:03:30;;;;;;;;;;;;;;;16.03;55.80;100932.50;5081214;28;1038;-54
2023/06/01 07:05:55;;;;;;;;;;;;;;;16.04;55.75;100934.13;5069356;28;1114;-56
2023/06/01 07:08:21;;;;;;;;;;;;;;;16.01;55.62;100931.13;5088805;28;1182;-57
2023/06/01 07:10:46;;;;;;;;;;;;;;;17.21;54.08;100933.97;5095779;28;1898;-54
2023/06/01 07:13:13;;;;;;;;;;;;;;;17.01;54.65;100929.28;5080532;28;1130;-58
2023/06/01 07:15:38;;;;;;;;;;;;;;;16.60;55.44;100924.50;5096109;28;1097;-58
2023/06/01 07:18:04;;;;;;;;;;;;;;;16.41;56.02;100922.25;5075813;28;1145;-58
2023/06/01 07:20:29;;;;;;;;;;;;;;;16.35;55.93;100926.03;5088746;28;1054;-60
2023/06/01 07:22:55;;;;;;;;;;;;;;;16.23;56.03;100931.78;5070451;28;1150;-60
2023/06/01 07:25:20;;;;;;;;;;;;;;;16.19;56.10;100936.13;5055690;28;1215;-57
2023/06/01 07:27:48;;;;;;;;;;;;;;;16.18;55.80;100930.91;5055760;28;1242;-58
2023/06/01 07:30:14;;;;;;;;;;;;;;;16.11;56.21;100930.34;5055942;28;1902;-54
2023/06/01 07:32:40;;;;;;;;;;;;;;;16.07;56.13;100930.88;5059257;28;1087;-55
2023/06/01 07:35:06;;;;;;;;;;;;;;;16.05;55.74;100927.56;5056268;28;976;-56
2023/06/01 07:37:31;;;;;;;;;;;;;;;16.01;56.14;100929.19;5068387;28;1075;-58
2023/06/01 07:39:57;;;;;;;;;;;;;;;15.96;55.80;100926.41;5075958;28;1202;-55
2023/06/01 07:42:23;;;;;;;;;;;;;;;16.91;55.02;100936.41;5081438;28;1027;-57
2023/06/01 07:44:48;;;;;;;;;;;;;;;17.16;54.80;100928.47;5088538;28;1071;-57
2023/06/01 07:47:14;;;;;;;;;;;;;;;16.56;55.96;100929.72;5076306;28;1130;-57
2023/06/01 07:49:39;;;;;;;;;;;;;;;16.40;56.53;100926.06;5082314;28;1135;-55
2023/06/01 07:52:05;;;;;;;;;;;;;;;16.35;56.23;100928.78;5081745;28;1918;-54
2023/06/01 07:54:31;;;;;;;;;;;;;;;16.27;56.18;100925.75;5086760;28;1094;-54
2023/06/01 07:56:56;;;;;;;;;;;;;;;16.20;56.42;100924.06;5076238;28;1182;-57
2023/06/01 07:59:23;;;;;;;;;;;;;;;16.15;56.56;100925.97;5085705;28;1229;-57
2023/06/01 08:01:49;;;;;;;;;;;;;;;16.13;56.26;100914.44;5082202;28;1197;-55
2023/06/01 08:04:16;;;;;;;;;;;;;;;16.10;56.34;100921.25;5093309;28;1142;-50
2023/06/01 08:06:43;;;;;;;;;;;;;;;16.11;56.21;100909.22;5068211;28;1146;-56
2023/06/01 08:09:09;;;;;;;;;;;;;;;16.02;56.20;100906.16;5068850;28;1087;-57
2023/06/01 08:11:35;;;;;;;;;;;;;;;16.98;55.34;100914.16;5094944;28;1913;-57
2023/06/01 08:14:02;;;;;;;;;;;;;;;16.89;55.80;100910.31;5081635;28;1034;-58
2023/06/01 08:16:28;;;;;;;;;;;;;;;16.51;56.61;100909.63;5064908;28;1118;-52
2023/06/01 08:18:56;;;;;;;;;;;;;;;16.39;56.53;100907.94;5090392;28;1118;-53
2023/06/01 08:21:25;;;;;;;;;;;;;;;16.32;56.67;100901.88;5064338;28;1193;-46
2023/06/01 08:23:51;;;;;;;;;;;;;;;16.25;56.73;100899.38;5094710;28;898;-54
2023/06/01 08:26:18;;;;;;;;;;;;;;;16.19;56.56;100891.44;5080017;28;1157;-58
2023/06/01 08:28:51;;;;;;;;;;;;;;;16.17;56.52;100893.59;5067834;28;1197;-57
2023/06/01 08:31:17;;;;;;;;;;;;;;;16.15;56.59;100890.31;5085910;28;1917;-54
2023/06/01 08:33:42;;;;;;;;;;;;;;;16.09;56.50;100897.69;5088092;28;1158;-53
2023/06/01 08:36:08;;;;;;;;;;;;;;;16.01;56.45;100890.78;5075497;28;927;-54
2023/06/01 08:38:33;;;;;;;;;;;;;;;16.02;56.57;100881.47;5076586;28;1018;-55
2023/06/01 08:40:59;;;;;;;;;;;;;;;15.97;56.68;100877.88;5078695;28;1023;-55
2023/06/01 08:43:25;;;;;;;;;;;;;;;16.26;56.27;100881.03;5068912;28;1106;-53
2023/06/01 08:45:51;;;;;;;;;;;;;;;17.29;55.07;100875.69;5065118;28;1272;-55
2023/06/01 08:48:17;;;;;;;;;;;;;;;16.64;56.58;100876.19;5098555;28;1149;-56
2023/06/01 08:50:47;;;;;;;;;;;;;;;16.40;56.82;100873.94;5099155;28;1914;-54
2023/06/01 08:53:13;;;;;;;;;;;;;;;16.31;56.94;100877.47;5082835;28;1285;-55
2023/06/01 08:55:39;;;;;;;;;;;;;;;16.22;56.76;100875.22;5054752;28;1234;-52
2023/06/01 08:58:04;;;;;;;;;;;;;;;16.16;56.80;100873.56;5065855;28;1298;-51
2023/06/01 09:00:30;;;;;;;;;;;;;;;16.17;56.69;100866.16;5051390;28;1024;-50
2023/06/01 09:02:55;;;;;;;;;;;;;;;16.08;56.46;100874.91;5043909;28;1219;-53
2023/06/01 09:05:21;;;;;;;;;;;;;;;16.05;56.65;100864.47;5070359;28;1150;-55
2023/06/01 09:07:47;;;;;;;;;;;;;;;15.96;56.75;100870.72;5098939;28;979;-55
2023/06/01 09:10:13;;;;;;;;;;;;;;;16.90;55.79;100876.25;5080836;28;1979;-52
2023/06/01 09:12:40;;;;;;;;;;;;;;;17.15;55.61;100869.94;5096165;28;988;-52
2023/06/01 09:15:06;;;;;;;;;;;;;;;16.62;56.95;100864.66;5070863;28;1143;-53
2023/06/01 09:17:32;;;;;;;;;;;;;;;16.41;57.09;100867.34;5070690;28;1007;-52
2023/06/01 09:19:57;;;;;;;;;;;;;;;16.35;57.07;100879.38;5081090;28;1047;-56
2023/06/01 09:22:23;;;;;;;;;;;;;;;16.21;56.91;100873.56;5084427;28;995;-51
2023/06/01 09:24:55;;;;;;;;;;;;;;;16.19;56.96;100874.97;5066459;28;1541;-53
2023/06/01 09:27:20;;;;;;;;;;;;;;;16.16;56.78;100875.47;5094880;28;1131;-51
2023/06/01 09:29:52;;;;;;;;;;;;;;;16.10;56.79;100882.03;5098213;28;1058;-53
2023/06/01 09:32:19;;;;;;;;;;;;;;;16.06;56.64;100871.63;5081029;28;1914;-56
2023/06/01 09:34:45;;;;;;;;;;;;;;;16.47;56.63;100881.09;5086976;28;1141;-49
2023/06/01 09:37:11;;;;;;;;;;;;;;;17.42;55.23;100875.16;5081780;28;1023;-49
2023/06/01 09:39:36;;;;;;;;;;;;;;;16.75;57.03;100875.09;5086558;28;861;-56
2023/06/01 09:42:02;;;;;;;;;;;;;;;16.49;57.10;100879.72;5077850;28;1083;-59
2023/06/01 09:44:31;;;;;;;;;;;;;;;16.40;57.31;100882.16;5098013;28;1195;-57
2023/06/01 09:46:57;;;;;;;;;;;;;;;16.34;57.00;100876.91;5066016;28;1150;-58
2023/06/01 09:49:32;;;;;;;;;;;;;;;16.26;57.05;100883.75;5076774;28;1134;-55
2023/06/01 09:52:03;;;;;;;;;;;;;;;16.20;57.03;100876.59;5083831;28;1969;-56
2023/06/01 09:54:29;;;;;;;;;;;;;;;16.15;56.99;100873.84;5066119;28;1087;-57
2023/06/01 09:56:55;;;;;;;;;;;;;;;16.11;56.95;100876.28;5079330;28;1242;-58
2023/06/01 09:59:21;;;;;;;;;;;;;;;16.06;56.92;100873.50;5063047;28;1229;-60
2023/06/01 10:01:53;;;;;;;;;;;;;;;16.07;56.56;100861.47;5063804;28;1217;-59
2023/06/01 10:04:22;;;;;;;;;;;;;;;16.01;56.56;100873.50;5066338;28;1348;-58
2023/06/01 10:06:51;;;;;;;;;;;;;;;15.94;56.75;100872.94;5074738;28;1055;-59
2023/06/01 10:09:19;;;;;;;;;;;;;;;16.88;56.31;100875.66;5076273;28;1060;-58
2023/06/01 10:11:44;;;;;;;;;;;;;;;16.96;56.45;100866.91;5072755;28;1902;-57
2023/06/01 10:14:10;;;;;;;;;;;;;;;16.48;57.46;100867.09;5083139;28;1030;-58
2023/06/01 10:16:35;;;;;;;;;;;;;;;16.32;57.66;100859.91;5083314;28;1173;-59
2023/06/01 10:19:01;;;;;;;;;;;;;;;16.31;57.21;100852.75;5083952;28;1030;-58
2023/06/01 10:21:28;;;;;;;;;;;;;;;16.21;57.25;100862.59;5084042;28;1018;-58
2023/06/01 10:23:54;;;;;;;;;;;;;;;16.14;57.14;100858.47;5078432;28;1089;-58
2023/06/01 10:26:19;;;;;;;;;;;;;;;16.08;57.26;100858.44;5065720;28;1257;-58
2023/06/01 10:28:45;;;;;;;;;;;;;;;16.00;57.27;100856.22;5072372;28;1062;-57
2023/06/01 10:31:29;;;;;;;;;;;;;;;16.01;57.03;100852.38;5076771;28;1898;-56
2023/06/01 10:33:58;;;;;;;;;;;;;;;16.99;56.49;100851.81;5090508;28;1059;-56
2023/06/01 10:36:23;;;;;;;;;;;;;;;16.99;56.65;100852.63;5087917;28;1241;-59
2023/06/01 10:38:49;;;;;;;;;;;;;;;16.53;57.63;100853.38;5092008;28;1066;-58
2023/06/01 10:41:28;;;;;;;;;;;;;;;16.41;57.57;100839.91;5075890;28;1034;-56
2023/06/01 10:43:54;;;;;;;;;;;;;;;16.33;57.17;100843.16;5096785;28;1079;-60
2023/06/01 10:46:35;;;;;;;;;;;;;;;16.22;57.25;100838.75;5083306;28;1157;-59
2023/06/01 10:49:01;;;;;;;;;;;;;;;16.21;57.11;100839.84;5071717;28;981;-59
2023/06/01 10:51:28;;;;;;;;;;;;;;;16.18;56.99;100830.22;5058971;28;1980;-62
2023/06/01 10:53:53;;;;;;;;;;;;;;;16.07;57.25;100825.81;5059408;28;1218;-62
2023/06/01 10:56:20;;;;;;;;;;;;;;;16.06;56.90;100824.13;5089406;28;1103;-59
2023/06/01 10:58:46;;;;;;;;;;;;;;;16.93;56.75;100818.84;5076418;28;1105;-60
2023/06/01 11:01:17;;;;;;;;;;;;;;;17.01;56.62;100820.22;5075415;28;1012;-60
2023/06/01 11:03:46;;;;;;;;;;;;;;;16.54;57.51;100821.28;5089976;28;1201;-60
2023/06/01 11:06:27;;;;;;;;;;;;;;;16.41;57.58;100814.34;5081850;28;1023;-61
2023/06/01 11:08:54;;;;;;;;;;;;;;;16.31;57.34;100806.94;5085490;28;1023;-59
2023/06/01 11:11:20;;;;;;;;;;;;;;;16.21;57.39;100806.91;5086099;28;1910;-59
2023/06/01 11:14:04;;;;;;;;;;;;;;;16.20;57.36;100808.00;5086163;28;1114;-60
2023/06/01 11:16:30;;;;;;;;;;;;;;;16.14;56.98;100806.34;5088809;28;1042;-60
2023/06/01 11:18:59;;;;;;;;;;;;;;;16.10;57.30;100799.75;5083425;28;1138;-56
2023/06/01 11:21:28;;;;;;;;;;;;;;;16.06;57.00;100799.44;5096059;28;1002;-57
2023/06/01 11:23:55;;;;;;;;;;;;;;;16.03;56.97;100800.84;5068664;28;1032;-57
2023/06/01 11:26:24;;;;;;;;;;;;;;;17.06;56.48;100798.22;5082438;28;1142;-57
2023/06/01 11:28:50;;;;;;;;;;;;;;;17.00;56.97;100796.59;5089033;28;1181;-57
2023/06/01 11:31:18;;;;;;;;;;;;;;;16.60;57.46;100801.75;5090467;28;1901;-56
2023/06/01 11:33:53;;;;;;;;;;;;;;;16.45;57.72;100792.69;5082596;28;1201;-60
2023/06/01 11:36:20;;;;;;;;;;;;;;;16.37;57.48;100789.41;5095671;28;1078;-59
2023/06/01 11:38:45;;;;;;;;;;;;;;;16.35;57.45;100788.81;5095751;28;990;-59
2023/06/01 11:41:11;;;;;;;;;;;;;;;16.23;57.33;100780.84;5085342;28;1209;-59
2023/06/01 11:43:37;;;;;;;;;;;;;;;16.19;57.58;100782.50;5088721;28;1002;-59
2023/06/01 11:46:02;;;;;;;;;;;;;;;16.18;57.29;100780.84;5086451;28;1111;-58
2023/06/01 11:48:29;;;;;;;;;;;;;;;16.17;57.14;100775.63;5074753;28;1067;-57
2023/06/01 11:50:54;;;;;;;;;;;;;;;16.11;57.05;100769.31;5076885;28;1906;-54
2023/06/01 11:53:20;;;;;;;;;;;;;;;16.10;56.84;100766.84;5070730;28;1113;-58
2023/06/01 11:55:53;;;;;;;;;;;;;;;16.05;57.00;100759.44;5055443;28;1286;-58
2023/06/01 11:58:22;;;;;;;;;;;;;;;16.06;57.03;100767.38;5058635;28;1210;-58
2023/06/01 12:00:47;;;;;;;;;;;;;;;16.06;56.85;100761.06;5077864;28;1229;-60
2023/06/01 12:03:13;;;;;;;;;;;;;;;16.04;56.75;100769.56;5084821;28;1099;-57
2023/06/01 12:05:40;;;;;;;;;;;;;;;15.98;57.09;100775.31;5096121;28;1022;-57
2023/06/01 12:08:06;;;;;;;;;;;;;;;15.96;56.75;100764.59;5063200;28;1197;-56
2023/06/01 12:10:32;;;;;;;;;;;;;;;17.24;56.29;100761.13;5092160;28;1906;-58
2023/06/01 12:12:57;;;;;;;;;;;;;;;17.00;57.29;100757.31;5068746;28;1119;-58
2023/06/01 12:15:23;;;;;;;;;;;;;;;16.61;57.84;100753.19;5079162;28;995;-60
2023/06/01 12:17:52;;;;;;;;;;;;;;;16.43;57.86;100752.63;5079737;28;1046;-58
2023/06/01 12:20:30;;;;;;;;;;;;;;;16.35;57.84;100755.91;5092799;28;999;-58
2023/06/01 12:22:56;;;;;;;;;;;;;;;16.31;57.74;100749.31;5079614;28;1095;-59
2023/06/01 12:25:22;;;;;;;;;;;;;;;16.24;57.54;100746.00;5097315;28;1002;-61
2023/06/01 12:28:00;;;;;;;;;;;;;;;16.18;57.28;100742.44;5099557;28;1112;-59
2023/06/01 12:30:26;;;;;;;;;;;;;;;16.15;57.47;100748.47;5072480;28;1902;-57
2023/06/01 12:32:51;;;;;;;;;;;;;;;16.13;57.31;100739.69;5090842;28;1109;-58
2023/06/01 12:35:17;;;;;;;;;;;;;;;16.07;57.27;100738.88;5078968;28;1075;-59
2023/06/01 12:37:43;;;;;;;;;;;;;;;16.02;57.16;100738.00;5099247;28;887;-58
2023/06/01 12:40:09;;;;;;;;;;;;;;;16.02;56.89;100738.00;5098315;28;1050;-57
2023/06/01 12:42:38;;;;;;;;;;;;;;;16.31;57.39;100741.06;5079213;28;1086;-57
2023/06/01 12:45:05;;;;;;;;;;;;;;;17.48;56.17;100733.00;5093451;28;1126;-58
2023/06/01 12:47:40;;;;;;;;;;;;;;;16.74;57.63;100733.41;5099381;28;1357;-60